sensor_id;sensor_type;location;lat;lon;timestamp;pressure;altitude;pressure_sealevel;temperature;humidity
39051;BME280;24805;55.852;37.644;2023-04-06T00:03:16;100078.44;;;6.31;59.86
39051;BME280;24805;55.852;37.644;2023-04-06T00:08:18;100072.16;;;6.22;60.18
39051;BME280;24805;55.852;37.644;2023-04-06T00:13:23;100075.91;;;6.20;60.09
39051;BME280;24805;55.852;37.644;2023-04-06T00:18:25;100077.56;;;6.11;60.39
39051;BME280;24805;55.852;37.644;2023-04-06T00:23:28;100075.06;;;6.10;60.91
39051;BME280;24805;55.852;37.644;2023-04-06T00:28:30;100081.44;;;6.07;60.84
39051;BME280;24805;55.852;37.644;2023-04-06T00:33:32;100086.44;;;6.10;60.90
39051;BME280;24805;55.852;37.644;2023-04-06T00:38:34;100085.84;;;6.07;60.65
39051;BME280;24805;55.852;37.644;2023-04-06T00:43:37;100082.78;;;6.02;60.63
39051;BME280;24805;55.852;37.644;2023-04-06T00:48:39;100081.56;;;5.96;60.86
39051;BME280;24805;55.852;37.644;2023-04-06T00:53:42;100081.81;;;5.93;60.80
39051;BME280;24805;55.852;37.644;2023-04-06T00:58:46;100079.44;;;5.90;61.14
39051;BME280;24805;55.852;37.644;2023-04-06T01:03:48;100078.41;;;5.81;61.58
39051;BME280;24805;55.852;37.644;2023-04-06T01:08:53;100075.22;;;5.78;61.85
39051;BME280;24805;55.852;37.644;2023-04-06T01:13:59;100071.19;;;5.74;61.58
39051;BME280;24805;55.852;37.644;2023-04-06T01:19:19;100068.50;;;5.64;61.72
39051;BME280;24805;55.852;37.644;2023-04-06T01:24:26;100072.34;;;5.60;61.70
39051;BME280;24805;55.852;37.644;2023-04-06T01:29:48;100075.41;;;5.56;61.62
39051;BME280;24805;55.852;37.644;2023-04-06T01:35:01;100069.00;;;5.48;62.32
39051;BME280;24805;55.852;37.644;2023-04-06T01:40:07;100063.53;;;5.40;62.06
39051;BME280;24805;55.852;37.644;2023-04-06T01:45:17;100078.50;;;5.40;62.23
39051;BME280;24805;55.852;37.644;2023-04-06T01:50:20;100080.84;;;5.33;62.47
39051;BME280;24805;55.852;37.644;2023-04-06T01:55:22;100076.94;;;5.28;62.23
39051;BME280;24805;55.852;37.644;2023-04-06T02:00:43;100077.19;;;5.25;62.83
39051;BME280;24805;55.852;37.644;2023-04-06T02:05:45;100069.94;;;5.17;62.53
39051;BME280;24805;55.852;37.644;2023-04-06T02:10:57;100075.34;;;5.15;62.64
39051;BME280;24805;55.852;37.644;2023-04-06T02:16:07;100083.50;;;5.12;63.12
39051;BME280;24805;55.852;37.644;2023-04-06T02:21:09;100085.91;;;5.04;63.11
39051;BME280;24805;55.852;37.644;2023-04-06T02:26:11;100090.75;;;4.99;63.05
39051;BME280;24805;55.852;37.644;2023-04-06T02:31:13;100091.25;;;4.93;63.28
39051;BME280;24805;55.852;37.644;2023-04-06T02:36:18;100097.47;;;4.92;63.31
39051;BME280;24805;55.852;37.644;2023-04-06T02:41:20;100110.88;;;4.89;63.52
39051;BME280;24805;55.852;37.644;2023-04-06T02:46:23;100106.94;;;4.83;63.47
39051;BME280;24805;55.852;37.644;2023-04-06T02:51:26;100096.50;;;4.72;63.92
39051;BME280;24805;55.852;37.644;2023-04-06T02:56:36;100108.72;;;4.83;63.58
39051;BME280;24805;55.852;37.644;2023-04-06T03:01:39;100108.72;;;4.83;63.75
39051;BME280;24805;55.852;37.644;2023-04-06T03:06:41;100116.50;;;4.84;63.51
39051;BME280;24805;55.852;37.644;2023-04-06T03:11:57;100118.03;;;4.87;63.57
39051;BME280;24805;55.852;37.644;2023-04-06T03:17:00;100113.38;;;4.91;63.21
39051;BME280;24805;55.852;37.644;2023-04-06T03:22:04;100130.88;;;5.01;63.35
39051;BME280;24805;55.852;37.644;2023-04-06T03:27:06;100131.09;;;5.09;62.86
39051;BME280;24805;55.852;37.644;2023-04-06T03:32:09;100132.00;;;5.19;62.46
39051;BME280;24805;55.852;37.644;2023-04-06T03:37:15;100141.47;;;5.32;62.12
39051;BME280;24805;55.852;37.644;2023-04-06T03:42:22;100145.69;;;5.44;62.24
39051;BME280;24805;55.852;37.644;2023-04-06T03:47:29;100148.03;;;5.58;61.50
39051;BME280;24805;55.852;37.644;2023-04-06T03:52:35;100154.59;;;5.73;61.25
39051;BME280;24805;55.852;37.644;2023-04-06T03:57:38;100147.91;;;5.90;60.57
39051;BME280;24805;55.852;37.644;2023-04-06T04:02:40;100156.41;;;6.03;60.43
39051;BME280;24805;55.852;37.644;2023-04-06T04:07:42;100162.31;;;6.16;60.21
39051;BME280;24805;55.852;37.644;2023-04-06T04:12:46;100160.13;;;6.31;59.06
39051;BME280;24805;55.852;37.644;2023-04-06T04:17:48;100172.06;;;6.45;58.94
39051;BME280;24805;55.852;37.644;2023-04-06T04:22:51;100171.13;;;6.55;58.70
39051;BME280;24805;55.852;37.644;2023-04-06T04:27:53;100163.94;;;6.67;58.10
39051;BME280;24805;55.852;37.644;2023-04-06T04:32:57;100170.91;;;6.78;58.05
39051;BME280;24805;55.852;37.644;2023-04-06T04:38:00;100166.88;;;6.93;57.00
39051;BME280;24805;55.852;37.644;2023-04-06T04:43:02;100166.44;;;7.07;57.08
39051;BME280;24805;55.852;37.644;2023-04-06T04:48:08;100171.56;;;7.28;56.77
39051;BME280;24805;55.852;37.644;2023-04-06T04:53:22;100166.69;;;7.43;55.92
39051;BME280;24805;55.852;37.644;2023-04-06T04:58:29;100171.91;;;7.72;56.14
39051;BME280;24805;55.852;37.644;2023-04-06T05:03:34;100165.59;;;7.92;55.01
39051;BME280;24805;55.852;37.644;2023-04-06T05:08:41;100177.44;;;8.52;54.20
39051;BME280;24805;55.852;37.644;2023-04-06T05:13:44;100180.63;;;9.96;51.65
39051;BME280;24805;55.852;37.644;2023-04-06T05:18:51;100177.66;;;11.40;48.01
39051;BME280;24805;55.852;37.644;2023-04-06T05:23:55;100178.00;;;12.64;45.79
39051;BME280;24805;55.852;37.644;2023-04-06T05:28:58;100183.81;;;13.97;43.04
39051;BME280;24805;55.852;37.644;2023-04-06T05:34:05;100180.50;;;15.11;40.59
39051;BME280;24805;55.852;37.644;2023-04-06T05:39:10;100170.16;;;16.06;38.80
39051;BME280;24805;55.852;37.644;2023-04-06T05:44:27;100180.44;;;16.98;37.11
39051;BME280;24805;55.852;37.644;2023-04-06T05:49:39;100180.03;;;18.00;34.79
39051;BME280;24805;55.852;37.644;2023-04-06T05:54:47;100174.91;;;18.63;33.79
39051;BME280;24805;55.852;37.644;2023-04-06T05:59:49;100179.94;;;19.54;32.33
39051;BME280;24805;55.852;37.644;2023-04-06T06:04:53;100176.66;;;20.38;30.25
39051;BME280;24805;55.852;37.644;2023-04-06T06:09:58;100181.63;;;21.31;29.74
39051;BME280;24805;55.852;37.644;2023-04-06T06:15:06;100175.31;;;21.95;28.27
39051;BME280;24805;55.852;37.644;2023-04-06T06:20:13;100174.78;;;23.14;26.63
39051;BME280;24805;55.852;37.644;2023-04-06T06:25:17;100168.44;;;23.53;25.84
39051;BME280;24805;55.852;37.644;2023-04-06T06:30:21;100180.09;;;24.26;24.94
39051;BME280;24805;55.852;37.644;2023-04-06T06:35:25;100173.69;;;24.15;23.88
39051;BME280;24805;55.852;37.644;2023-04-06T06:40:27;100171.88;;;23.65;24.45
39051;BME280;24805;55.852;37.644;2023-04-06T06:45:30;100158.03;;;24.22;24.07
39051;BME280;24805;55.852;37.644;2023-04-06T06:50:33;100163.19;;;25.11;22.98
39051;BME280;24805;55.852;37.644;2023-04-06T06:55:35;100163.41;;;25.36;22.03
39051;BME280;24805;55.852;37.644;2023-04-06T07:00:37;100154.97;;;25.33;22.61
39051;BME280;24805;55.852;37.644;2023-04-06T07:05:47;100158.50;;;26.80;22.48
39051;BME280;24805;55.852;37.644;2023-04-06T07:10:55;100133.25;;;27.56;19.79
39051;BME280;24805;55.852;37.644;2023-04-06T07:15:58;100157.38;;;28.33;19.14
39051;BME280;24805;55.852;37.644;2023-04-06T07:21:02;100162.91;;;28.77;18.52
39051;BME280;24805;55.852;37.644;2023-04-06T07:26:04;100157.13;;;29.86;18.18
39051;BME280;24805;55.852;37.644;2023-04-06T07:31:06;100157.78;;;30.73;16.68
39051;BME280;24805;55.852;37.644;2023-04-06T07:36:09;100155.50;;;31.64;16.07
39051;BME280;24805;55.852;37.644;2023-04-06T07:41:11;100153.97;;;32.18;15.63
39051;BME280;24805;55.852;37.644;2023-04-06T07:46:14;100141.16;;;33.27;15.02
39051;BME280;24805;55.852;37.644;2023-04-06T07:51:17;100150.53;;;34.18;14.05
39051;BME280;24805;55.852;37.644;2023-04-06T07:56:21;100145.38;;;35.17;13.09
39051;BME280;24805;55.852;37.644;2023-04-06T08:01:24;100136.00;;;35.73;12.59
39051;BME280;24805;55.852;37.644;2023-04-06T08:06:26;100135.75;;;35.40;12.67
39051;BME280;24805;55.852;37.644;2023-04-06T08:11:29;100136.75;;;35.27;12.90
39051;BME280;24805;55.852;37.644;2023-04-06T08:16:31;100131.59;;;35.89;12.06
39051;BME280;24805;55.852;37.644;2023-04-06T08:21:33;100133.38;;;35.85;11.39
39051;BME280;24805;55.852;37.644;2023-04-06T08:26:36;100130.31;;;36.46;11.33
39051;BME280;24805;55.852;37.644;2023-04-06T08:31:38;100130.59;;;37.15;10.61
39051;BME280;24805;55.852;37.644;2023-04-06T08:36:41;100122.56;;;37.02;10.86
39051;BME280;24805;55.852;37.644;2023-04-06T08:41:43;100113.63;;;36.04;10.94
39051;BME280;24805;55.852;37.644;2023-04-06T08:46:46;100104.97;;;35.85;11.10
39051;BME280;24805;55.852;37.644;2023-04-06T08:51:49;100122.50;;;37.10;10.99
39051;BME280;24805;55.852;37.644;2023-04-06T08:56:52;100105.16;;;38.04;9.77
39051;BME280;24805;55.852;37.644;2023-04-06T09:01:55;100108.06;;;36.42;10.01
39051;BME280;24805;55.852;37.644;2023-04-06T09:06:58;100115.81;;;35.26;10.91
39051;BME280;24805;55.852;37.644;2023-04-06T09:12:00;100124.22;;;35.47;11.36
39051;BME280;24805;55.852;37.644;2023-04-06T09:17:08;100105.19;;;36.01;10.91
39051;BME280;24805;55.852;37.644;2023-04-06T09:22:10;100107.69;;;36.52;10.46
39051;BME280;24805;55.852;37.644;2023-04-06T09:27:13;100113.63;;;36.04;10.22
39051;BME280;24805;55.852;37.644;2023-04-06T09:32:16;100108.22;;;35.32;10.39
39051;BME280;24805;55.852;37.644;2023-04-06T09:37:19;100101.38;;;36.73;9.66
39051;BME280;24805;55.852;37.644;2023-04-06T09:42:25;100110.47;;;38.45;9.49
39051;BME280;24805;55.852;37.644;2023-04-06T09:47:28;100101.16;;;37.89;9.15
39051;BME280;24805;55.852;37.644;2023-04-06T09:52:33;100096.91;;;37.46;9.34
39051;BME280;24805;55.852;37.644;2023-04-06T10:08:22;100105.44;;;36.25;9.88
39051;BME280;24805;55.852;37.644;2023-04-06T10:13:26;100091.72;;;36.37;9.67
39051;BME280;24805;55.852;37.644;2023-04-06T10:18:29;100095.38;;;37.04;9.70
39051;BME280;24805;55.852;37.644;2023-04-06T10:28:36;100080.53;;;36.75;9.36
39051;BME280;24805;55.852;37.644;2023-04-06T10:33:38;100084.47;;;37.07;9.69
39051;BME280;24805;55.852;37.644;2023-04-06T10:38:42;100085.50;;;37.36;9.50
39051;BME280;24805;55.852;37.644;2023-04-06T10:43:44;100089.78;;;38.55;8.87
39051;BME280;24805;55.852;37.644;2023-04-06T10:48:49;100079.34;;;39.48;8.02
39051;BME280;24805;55.852;37.644;2023-04-06T10:53:53;100087.97;;;39.15;8.48
39051;BME280;24805;55.852;37.644;2023-04-06T10:58:55;100084.78;;;39.01;8.59
39051;BME280;24805;55.852;37.644;2023-04-06T11:03:58;100087.50;;;38.57;8.40
39051;BME280;24805;55.852;37.644;2023-04-06T11:09:01;100084.63;;;38.29;8.47
39051;BME280;24805;55.852;37.644;2023-04-06T11:14:03;100074.81;;;38.32;9.11
39051;BME280;24805;55.852;37.644;2023-04-06T11:19:05;100079.91;;;37.93;8.93
39051;BME280;24805;55.852;37.644;2023-04-06T11:24:18;100069.84;;;36.65;9.65
39051;BME280;24805;55.852;37.644;2023-04-06T11:29:23;100090.19;;;35.34;10.50
39051;BME280;24805;55.852;37.644;2023-04-06T11:34:25;100071.63;;;35.52;10.32
39051;BME280;24805;55.852;37.644;2023-04-06T11:39:29;100078.84;;;35.10;10.58
39051;BME280;24805;55.852;37.644;2023-04-06T11:44:44;100079.22;;;34.82;10.97
39051;BME280;24805;55.852;37.644;2023-04-06T11:49:51;100071.72;;;35.09;10.58
39051;BME280;24805;55.852;37.644;2023-04-06T11:54:54;100070.38;;;35.41;10.22
39051;BME280;24805;55.852;37.644;2023-04-06T11:59:58;100060.28;;;35.53;10.26
39051;BME280;24805;55.852;37.644;2023-04-06T12:05:00;100059.16;;;35.46;10.58
39051;BME280;24805;55.852;37.644;2023-04-06T12:10:04;100061.69;;;34.52;10.98
39051;BME280;24805;55.852;37.644;2023-04-06T12:15:07;100050.06;;;33.90;11.08
39051;BME280;24805;55.852;37.644;2023-04-06T12:20:10;100058.06;;;33.69;11.56
39051;BME280;24805;55.852;37.644;2023-04-06T12:25:27;100048.88;;;33.43;11.76
39051;BME280;24805;55.852;37.644;2023-04-06T12:30:30;100045.31;;;33.42;11.72
39051;BME280;24805;55.852;37.644;2023-04-06T12:35:34;100043.75;;;33.59;11.98
39051;BME280;24805;55.852;37.644;2023-04-06T12:40:38;100048.78;;;33.96;11.60
39051;BME280;24805;55.852;37.644;2023-04-06T12:45:40;100046.50;;;33.59;11.63
39051;BME280;24805;55.852;37.644;2023-04-06T12:50:42;100039.19;;;33.45;11.10
39051;BME280;24805;55.852;37.644;2023-04-06T12:55:44;100023.19;;;33.16;11.73
39051;BME280;24805;55.852;37.644;2023-04-06T13:00:48;100033.28;;;32.63;12.57
39051;BME280;24805;55.852;37.644;2023-04-06T13:05:51;100042.16;;;32.10;12.46
39051;BME280;24805;55.852;37.644;2023-04-06T13:10:53;100029.31;;;32.19;12.66
39051;BME280;24805;55.852;37.644;2023-04-06T13:16:01;100034.13;;;32.13;12.58
39051;BME280;24805;55.852;37.644;2023-04-06T13:21:05;100033.28;;;30.98;12.62
39051;BME280;24805;55.852;37.644;2023-04-06T13:26:07;100041.91;;;29.45;13.50
39051;BME280;24805;55.852;37.644;2023-04-06T13:31:10;100022.09;;;28.22;14.24
39051;BME280;24805;55.852;37.644;2023-04-06T13:36:13;100016.34;;;27.59;14.56
39051;BME280;24805;55.852;37.644;2023-04-06T13:41:22;100018.63;;;27.12;14.75
39051;BME280;24805;55.852;37.644;2023-04-06T13:46:25;100034.91;;;26.51;15.18
39051;BME280;24805;55.852;37.644;2023-04-06T13:51:27;100025.38;;;26.58;15.66
39051;BME280;24805;55.852;37.644;2023-04-06T13:56:29;100030.03;;;26.63;15.45
39051;BME280;24805;55.852;37.644;2023-04-06T14:01:32;100019.91;;;26.33;15.33
39051;BME280;24805;55.852;37.644;2023-04-06T14:06:34;100026.22;;;25.76;15.43
39051;BME280;24805;55.852;37.644;2023-04-06T14:11:36;100031.19;;;24.73;16.03
39051;BME280;24805;55.852;37.644;2023-04-06T14:16:40;100024.22;;;23.46;16.60
39051;BME280;24805;55.852;37.644;2023-04-06T14:21:43;100022.69;;;22.21;17.48
39051;BME280;24805;55.852;37.644;2023-04-06T14:26:45;100026.91;;;21.19;18.85
39051;BME280;24805;55.852;37.644;2023-04-06T14:31:48;100035.06;;;20.36;19.59
39051;BME280;24805;55.852;37.644;2023-04-06T14:36:50;100035.22;;;19.74;20.14
39051;BME280;24805;55.852;37.644;2023-04-06T14:41:53;100031.03;;;19.17;21.23
39051;BME280;24805;55.852;37.644;2023-04-06T14:46:55;100026.69;;;18.66;21.25
39051;BME280;24805;55.852;37.644;2023-04-06T14:51:59;100041.22;;;18.52;21.94
39051;BME280;24805;55.852;37.644;2023-04-06T14:57:01;100040.50;;;17.94;21.98
39051;BME280;24805;55.852;37.644;2023-04-06T15:02:03;100043.84;;;17.63;22.01
39051;BME280;24805;55.852;37.644;2023-04-06T15:07:06;100045.78;;;17.36;22.30
39051;BME280;24805;55.852;37.644;2023-04-06T15:12:08;100046.22;;;17.13;22.32
39051;BME280;24805;55.852;37.644;2023-04-06T15:17:10;100031.38;;;16.77;22.92
39051;BME280;24805;55.852;37.644;2023-04-06T15:22:12;100055.81;;;16.61;23.12
39051;BME280;24805;55.852;37.644;2023-04-06T15:27:14;100063.63;;;16.43;23.41
39051;BME280;24805;55.852;37.644;2023-04-06T15:32:16;100071.63;;;16.30;23.98
39051;BME280;24805;55.852;37.644;2023-04-06T15:37:19;100076.50;;;16.13;24.22
39051;BME280;24805;55.852;37.644;2023-04-06T15:42:21;100076.22;;;15.95;24.11
39051;BME280;24805;55.852;37.644;2023-04-06T15:47:23;100081.44;;;15.68;23.89
39051;BME280;24805;55.852;37.644;2023-04-06T15:52:26;100076.84;;;15.56;24.67
39051;BME280;24805;55.852;37.644;2023-04-06T15:57:28;100084.50;;;15.37;24.75
39051;BME280;24805;55.852;37.644;2023-04-06T16:02:30;100091.91;;;15.14;25.09
39051;BME280;24805;55.852;37.644;2023-04-06T16:07:33;100090.53;;;14.97;25.33
39051;BME280;24805;55.852;37.644;2023-04-06T16:12:36;100104.28;;;14.72;24.83
39051;BME280;24805;55.852;37.644;2023-04-06T16:17:38;100107.56;;;14.53;24.86
39051;BME280;24805;55.852;37.644;2023-04-06T16:22:41;100113.47;;;14.34;25.70
39051;BME280;24805;55.852;37.644;2023-04-06T16:27:43;100108.06;;;14.12;26.33
39051;BME280;24805;55.852;37.644;2023-04-06T16:32:45;100123.66;;;13.94;25.99
39051;BME280;24805;55.852;37.644;2023-04-06T16:37:48;100130.00;;;13.78;26.19
39051;BME280;24805;55.852;37.644;2023-04-06T16:42:51;100135.66;;;13.61;25.47
39051;BME280;24805;55.852;37.644;2023-04-06T16:47:53;100146.94;;;13.48;25.71
39051;BME280;24805;55.852;37.644;2023-04-06T16:52:55;100146.44;;;13.30;26.20
39051;BME280;24805;55.852;37.644;2023-04-06T16:57:57;100162.50;;;13.22;26.83
39051;BME280;24805;55.852;37.644;2023-04-06T17:02:59;100159.75;;;13.53;25.55
39051;BME280;24805;55.852;37.644;2023-04-06T17:08:02;100169.94;;;13.03;28.18
39051;BME280;24805;55.852;37.644;2023-04-06T17:13:04;100169.41;;;12.85;28.05
39051;BME280;24805;55.852;37.644;2023-04-06T17:18:07;100180.50;;;12.66;29.27
39051;BME280;24805;55.852;37.644;2023-04-06T17:23:09;100177.25;;;12.48;28.47
39051;BME280;24805;55.852;37.644;2023-04-06T17:28:11;100187.81;;;12.33;29.27
39051;BME280;24805;55.852;37.644;2023-04-06T17:33:13;100192.31;;;12.63;25.95
39051;BME280;24805;55.852;37.644;2023-04-06T17:38:17;100193.38;;;12.15;28.64
39051;BME280;24805;55.852;37.644;2023-04-06T17:43:20;100193.44;;;11.99;28.69
39051;BME280;24805;55.852;37.644;2023-04-06T17:48:22;100204.41;;;11.88;29.24
39051;BME280;24805;55.852;37.644;2023-04-06T17:53:25;100214.69;;;11.74;29.10
39051;BME280;24805;55.852;37.644;2023-04-06T17:58:31;100210.03;;;11.60;29.84
39051;BME280;24805;55.852;37.644;2023-04-06T18:03:33;100224.34;;;11.51;30.18
39051;BME280;24805;55.852;37.644;2023-04-06T18:08:36;100214.88;;;11.32;29.74
39051;BME280;24805;55.852;37.644;2023-04-06T18:13:37;100217.53;;;11.65;27.56
39051;BME280;24805;55.852;37.644;2023-04-06T18:18:41;100224.31;;;11.11;29.14
39051;BME280;24805;55.852;37.644;2023-04-06T18:23:43;100225.59;;;10.90;29.65
39051;BME280;24805;55.852;37.644;2023-04-06T18:28:46;100225.09;;;10.79;28.98
39051;BME280;24805;55.852;37.644;2023-04-06T18:33:48;100234.63;;;10.63;28.84
39051;BME280;24805;55.852;37.644;2023-04-06T18:38:54;100230.31;;;10.54;29.00
39051;BME280;24805;55.852;37.644;2023-04-06T18:43:56;100237.84;;;10.41;29.17
39051;BME280;24805;55.852;37.644;2023-04-06T18:48:58;100240.66;;;10.31;28.84
39051;BME280;24805;55.852;37.644;2023-04-06T18:54:01;100239.75;;;10.23;28.65
39051;BME280;24805;55.852;37.644;2023-04-06T18:59:03;100246.31;;;10.11;29.14
39051;BME280;24805;55.852;37.644;2023-04-06T19:04:05;100242.59;;;10.03;29.45
39051;BME280;24805;55.852;37.644;2023-04-06T19:09:08;100250.69;;;9.94;29.18
39051;BME280;24805;55.852;37.644;2023-04-06T19:14:10;100247.03;;;10.21;27.73
39051;BME280;24805;55.852;37.644;2023-04-06T19:19:12;100253.69;;;9.73;29.78
39051;BME280;24805;55.852;37.644;2023-04-06T19:24:14;100249.53;;;9.96;27.68
39051;BME280;24805;55.852;37.644;2023-04-06T19:29:16;100256.44;;;9.46;30.70
39051;BME280;24805;55.852;37.644;2023-04-06T19:34:18;100244.25;;;9.35;30.30
39051;BME280;24805;55.852;37.644;2023-04-06T19:39:20;100245.00;;;9.27;30.87
39051;BME280;24805;55.852;37.644;2023-04-06T19:44:23;100249.09;;;9.22;30.85
39051;BME280;24805;55.852;37.644;2023-04-06T19:49:25;100249.84;;;9.14;30.70
39051;BME280;24805;55.852;37.644;2023-04-06T19:54:30;100253.78;;;9.10;31.64
39051;BME280;24805;55.852;37.644;2023-04-06T19:59:32;100254.66;;;9.01;30.96
39051;BME280;24805;55.852;37.644;2023-04-06T20:04:37;100252.63;;;8.95;31.29
39051;BME280;24805;55.852;37.644;2023-04-06T20:09:40;100254.19;;;8.88;31.63
39051;BME280;24805;55.852;37.644;2023-04-06T20:14:42;100257.91;;;8.77;31.45
39051;BME280;24805;55.852;37.644;2023-04-06T20:19:44;100256.03;;;9.05;29.65
39051;BME280;24805;55.852;37.644;2023-04-06T20:24:46;100256.56;;;8.63;31.71
39051;BME280;24805;55.852;37.644;2023-04-06T20:29:49;100262.63;;;8.46;32.20
39051;BME280;24805;55.852;37.644;2023-04-06T20:34:51;100255.75;;;8.36;32.63
39051;BME280;24805;55.852;37.644;2023-04-06T20:39:54;100256.41;;;8.28;32.92
39051;BME280;24805;55.852;37.644;2023-04-06T20:44:56;100252.53;;;8.59;29.59
39051;BME280;24805;55.852;37.644;2023-04-06T20:49:58;100252.16;;;8.17;33.49
39051;BME280;24805;55.852;37.644;2023-04-06T20:55:01;100254.13;;;8.06;34.34
39051;BME280;24805;55.852;37.644;2023-04-06T21:00:04;100238.75;;;7.82;33.74
39051;BME280;24805;55.852;37.644;2023-04-06T21:05:07;100267.09;;;7.89;34.19
39051;BME280;24805;55.852;37.644;2023-04-06T21:10:10;100270.88;;;7.77;34.17
39051;BME280;24805;55.852;37.644;2023-04-06T21:15:15;100269.34;;;7.75;34.10
39051;BME280;24805;55.852;37.644;2023-04-06T21:20:17;100283.41;;;7.66;34.57
39051;BME280;24805;55.852;37.644;2023-04-06T21:25:19;100280.63;;;7.57;34.82
39051;BME280;24805;55.852;37.644;2023-04-06T21:30:21;100274.34;;;7.87;30.68
39051;BME280;24805;55.852;37.644;2023-04-06T21:35:23;100283.13;;;7.49;34.52
39051;BME280;24805;55.852;37.644;2023-04-06T21:40:25;100275.38;;;7.38;35.19
39051;BME280;24805;55.852;37.644;2023-04-06T21:45:27;100274.91;;;7.23;35.15
39051;BME280;24805;55.852;37.644;2023-04-06T21:50:30;100290.34;;;7.18;35.39
39051;BME280;24805;55.852;37.644;2023-04-06T21:55:32;100286.44;;;7.13;35.96
39051;BME280;24805;55.852;37.644;2023-04-06T22:00:34;100286.97;;;7.07;36.13
39051;BME280;24805;55.852;37.644;2023-04-06T22:05:36;100286.84;;;6.99;36.19
39051;BME280;24805;55.852;37.644;2023-04-06T22:10:39;100290.00;;;6.93;36.54
39051;BME280;24805;55.852;37.644;2023-04-06T22:15:41;100292.22;;;6.87;36.57
39051;BME280;24805;55.852;37.644;2023-04-06T22:20:44;100287.91;;;6.77;36.23
39051;BME280;24805;55.852;37.644;2023-04-06T22:25:47;100283.03;;;6.72;37.01
39051;BME280;24805;55.852;37.644;2023-04-06T22:30:49;100290.50;;;6.67;36.59
39051;BME280;24805;55.852;37.644;2023-04-06T22:35:51;100289.63;;;6.57;37.06
39051;BME280;24805;55.852;37.644;2023-04-06T22:40:53;100282.00;;;6.54;37.06
39051;BME280;24805;55.852;37.644;2023-04-06T22:45:55;100285.28;;;6.46;37.33
39051;BME280;24805;55.852;37.644;2023-04-06T22:50:57;100283.16;;;6.40;37.54
39051;BME280;24805;55.852;37.644;2023-04-06T22:55:59;100282.03;;;6.33;37.51
39051;BME280;24805;55.852;37.644;2023-04-06T23:01:02;100281.84;;;6.25;37.62
39051;BME280;24805;55.852;37.644;2023-04-06T23:06:04;100293.63;;;6.21;37.73
39051;BME280;24805;55.852;37.644;2023-04-06T23:11:07;100281.13;;;6.13;37.71
39051;BME280;24805;55.852;37.644;2023-04-06T23:16:09;100277.31;;;6.06;38.13
39051;BME280;24805;55.852;37.644;2023-04-06T23:21:11;100281.31;;;6.01;38.17
39051;BME280;24805;55.852;37.644;2023-04-06T23:26:13;100278.94;;;5.98;38.20
39051;BME280;24805;55.852;37.644;2023-04-06T23:31:16;100281.00;;;5.94;38.27
39051;BME280;24805;55.852;37.644;2023-04-06T23:36:18;100277.19;;;5.87;38.63
39051;BME280;24805;55.852;37.644;2023-04-06T23:41:20;100268.41;;;5.77;39.44
39051;BME280;24805;55.852;37.644;2023-04-06T23:46:23;100268.66;;;5.74;38.92
39051;BME280;24805;55.852;37.644;2023-04-06T23:51:25;100264.72;;;5.68;39.12
39051;BME280;24805;55.852;37.644;2023-04-06T23:56:28;100268.56;;;5.64;38.84
